sensor_id;sensor_type;location;lat;lon;timestamp;P1;durP1;ratioP1;P2;durP2;ratioP2
38937;SDS011;24727;51.974;20.868;2023-08-12T00:00:52;7.80;;;3.90;;
38937;SDS011;24727;51.974;20.868;2023-08-12T00:03:19;8.40;;;3.75;;
38937;SDS011;24727;51.974;20.868;2023-08-12T00:05:45;8.38;;;4.60;;
38937;SDS011;24727;51.974;20.868;2023-08-12T00:08:11;5.72;;;4.40;;
38937;SDS011;24727;51.974;20.868;2023-08-12T00:10:37;7.03;;;4.25;;
38937;SDS011;24727;51.974;20.868;2023-08-12T00:13:04;6.95;;;3.72;;
38937;SDS011;24727;51.974;20.868;2023-08-12T00:15:30;5.93;;;4.32;;
38937;SDS011;24727;51.974;20.868;2023-08-12T00:17:57;8.27;;;4.50;;
38937;SDS011;24727;51.974;20.868;2023-08-12T00:20:23;6.03;;;4.72;;
38937;SDS011;24727;51.974;20.868;2023-08-12T00:22:49;9.15;;;4.53;;
38937;SDS011;24727;51.974;20.868;2023-08-12T00:25:17;7.18;;;4.30;;
38937;SDS011;24727;51.974;20.868;2023-08-12T00:27:44;8.43;;;4.20;;
38937;SDS011;24727;51.974;20.868;2023-08-12T00:30:10;6.93;;;4.35;;
38937;SDS011;24727;51.974;20.868;2023-08-12T00:32:37;5.95;;;4.50;;
38937;SDS011;24727;51.974;20.868;2023-08-12T00:35:03;9.10;;;4.40;;
38937;SDS011;24727;51.974;20.868;2023-08-12T00:37:30;6.50;;;4.45;;
38937;SDS011;24727;51.974;20.868;2023-08-12T00:39:57;7.05;;;4.13;;
38937;SDS011;24727;51.974;20.868;2023-08-12T00:42:23;7.15;;;4.55;;
38937;SDS011;24727;51.974;20.868;2023-08-12T00:44:50;6.55;;;4.45;;
38937;SDS011;24727;51.974;20.868;2023-08-12T00:47:16;8.43;;;4.90;;
38937;SDS011;24727;51.974;20.868;2023-08-12T00:49:42;9.02;;;5.88;;
38937;SDS011;24727;51.974;20.868;2023-08-12T00:52:14;8.15;;;4.93;;
38937;SDS011;24727;51.974;20.868;2023-08-12T00:54:41;9.68;;;4.82;;
38937;SDS011;24727;51.974;20.868;2023-08-12T00:57:09;9.65;;;5.30;;
38937;SDS011;24727;51.974;20.868;2023-08-12T00:59:35;12.30;;;5.20;;
38937;SDS011;24727;51.974;20.868;2023-08-12T01:02:05;10.27;;;5.18;;
38937;SDS011;24727;51.974;20.868;2023-08-12T01:04:31;8.50;;;4.55;;
38937;SDS011;24727;51.974;20.868;2023-08-12T01:06:57;8.13;;;5.15;;
38937;SDS011;24727;51.974;20.868;2023-08-12T01:09:23;21.15;;;7.05;;
38937;SDS011;24727;51.974;20.868;2023-08-12T01:17:28;6.38;;;4.45;;
38937;SDS011;24727;51.974;20.868;2023-08-12T01:19:56;5.85;;;4.50;;
38937;SDS011;24727;51.974;20.868;2023-08-12T01:22:24;6.00;;;4.53;;
38937;SDS011;24727;51.974;20.868;2023-08-12T01:24:53;7.65;;;4.60;;
38937;SDS011;24727;51.974;20.868;2023-08-12T01:27:20;11.13;;;4.68;;
38937;SDS011;24727;51.974;20.868;2023-08-12T01:29:47;10.57;;;4.80;;
38937;SDS011;24727;51.974;20.868;2023-08-12T01:37:42;7.38;;;4.25;;
38937;SDS011;24727;51.974;20.868;2023-08-12T01:40:10;7.90;;;4.38;;
38937;SDS011;24727;51.974;20.868;2023-08-12T01:42:39;10.32;;;4.80;;
38937;SDS011;24727;51.974;20.868;2023-08-12T01:45:06;7.03;;;4.47;;
38937;SDS011;24727;51.974;20.868;2023-08-12T01:47:32;10.30;;;4.75;;
38937;SDS011;24727;51.974;20.868;2023-08-12T01:49:59;7.20;;;5.10;;
38937;SDS011;24727;51.974;20.868;2023-08-12T01:52:27;9.05;;;4.63;;
38937;SDS011;24727;51.974;20.868;2023-08-12T01:54:54;10.02;;;4.43;;
38937;SDS011;24727;51.974;20.868;2023-08-12T01:57:20;7.85;;;4.35;;
38937;SDS011;24727;51.974;20.868;2023-08-12T01:59:46;8.82;;;4.38;;
38937;SDS011;24727;51.974;20.868;2023-08-12T02:02:13;8.30;;;4.20;;
38937;SDS011;24727;51.974;20.868;2023-08-12T02:04:39;5.28;;;3.65;;
38937;SDS011;24727;51.974;20.868;2023-08-12T02:07:06;7.75;;;4.20;;
38937;SDS011;24727;51.974;20.868;2023-08-12T02:09:32;11.10;;;4.07;;
38937;SDS011;24727;51.974;20.868;2023-08-12T02:11:59;8.88;;;5.07;;
38937;SDS011;24727;51.974;20.868;2023-08-12T02:14:25;8.93;;;4.93;;
38937;SDS011;24727;51.974;20.868;2023-08-12T02:16:51;7.78;;;4.65;;
38937;SDS011;24727;51.974;20.868;2023-08-12T02:19:17;8.10;;;4.70;;
38937;SDS011;24727;51.974;20.868;2023-08-12T02:21:43;8.57;;;4.70;;
38937;SDS011;24727;51.974;20.868;2023-08-12T02:24:09;5.10;;;4.40;;
38937;SDS011;24727;51.974;20.868;2023-08-12T02:26:36;6.57;;;4.57;;
38937;SDS011;24727;51.974;20.868;2023-08-12T02:29:03;8.27;;;5.13;;
38937;SDS011;24727;51.974;20.868;2023-08-12T02:31:29;9.02;;;4.32;;
38937;SDS011;24727;51.974;20.868;2023-08-12T02:33:56;5.43;;;4.40;;
38937;SDS011;24727;51.974;20.868;2023-08-12T02:36:22;10.77;;;4.88;;
38937;SDS011;24727;51.974;20.868;2023-08-12T02:38:49;18.65;;;5.60;;
38937;SDS011;24727;51.974;20.868;2023-08-12T02:41:16;7.38;;;4.40;;
38937;SDS011;24727;51.974;20.868;2023-08-12T02:43:48;18.40;;;4.72;;
38937;SDS011;24727;51.974;20.868;2023-08-12T02:46:14;7.50;;;4.78;;
38937;SDS011;24727;51.974;20.868;2023-08-12T02:48:41;7.97;;;4.53;;
38937;SDS011;24727;51.974;20.868;2023-08-12T02:51:08;6.75;;;4.75;;
38937;SDS011;24727;51.974;20.868;2023-08-12T02:53:35;9.07;;;4.30;;
38937;SDS011;24727;51.974;20.868;2023-08-12T02:56:01;8.57;;;4.70;;
38937;SDS011;24727;51.974;20.868;2023-08-12T02:58:27;7.28;;;4.90;;
38937;SDS011;24727;51.974;20.868;2023-08-12T03:00:54;8.10;;;4.80;;
38937;SDS011;24727;51.974;20.868;2023-08-12T03:03:20;10.75;;;4.68;;
38937;SDS011;24727;51.974;20.868;2023-08-12T03:05:53;6.57;;;4.70;;
38937;SDS011;24727;51.974;20.868;2023-08-12T03:08:19;7.25;;;4.43;;
38937;SDS011;24727;51.974;20.868;2023-08-12T03:10:45;9.23;;;4.97;;
38937;SDS011;24727;51.974;20.868;2023-08-12T03:13:11;9.10;;;4.75;;
38937;SDS011;24727;51.974;20.868;2023-08-12T03:15:40;7.68;;;4.88;;
38937;SDS011;24727;51.974;20.868;2023-08-12T03:18:07;6.45;;;4.35;;
38937;SDS011;24727;51.974;20.868;2023-08-12T03:20:33;7.85;;;4.28;;
38937;SDS011;24727;51.974;20.868;2023-08-12T03:22:59;9.10;;;4.55;;
38937;SDS011;24727;51.974;20.868;2023-08-12T03:25:26;7.28;;;4.45;;
38937;SDS011;24727;51.974;20.868;2023-08-12T03:27:52;8.07;;;4.70;;
38937;SDS011;24727;51.974;20.868;2023-08-12T03:30:18;6.28;;;4.57;;
38937;SDS011;24727;51.974;20.868;2023-08-12T03:32:44;7.78;;;4.95;;
38937;SDS011;24727;51.974;20.868;2023-08-12T03:35:12;5.90;;;3.95;;
38937;SDS011;24727;51.974;20.868;2023-08-12T03:37:40;5.07;;;4.28;;
38937;SDS011;24727;51.974;20.868;2023-08-12T03:40:08;8.88;;;4.50;;
38937;SDS011;24727;51.974;20.868;2023-08-12T03:42:34;8.32;;;4.82;;
38937;SDS011;24727;51.974;20.868;2023-08-12T03:45:00;10.23;;;4.45;;
38937;SDS011;24727;51.974;20.868;2023-08-12T03:47:27;8.43;;;4.15;;
38937;SDS011;24727;51.974;20.868;2023-08-12T03:49:53;5.95;;;4.40;;
38937;SDS011;24727;51.974;20.868;2023-08-12T03:52:20;8.40;;;4.90;;
38937;SDS011;24727;51.974;20.868;2023-08-12T03:54:46;8.48;;;4.97;;
38937;SDS011;24727;51.974;20.868;2023-08-12T03:57:12;6.38;;;4.68;;
38937;SDS011;24727;51.974;20.868;2023-08-12T03:59:37;6.13;;;4.97;;
38937;SDS011;24727;51.974;20.868;2023-08-12T04:02:03;6.07;;;4.75;;
38937;SDS011;24727;51.974;20.868;2023-08-12T04:04:29;7.57;;;4.15;;
38937;SDS011;24727;51.974;20.868;2023-08-12T04:06:55;4.30;;;3.80;;
38937;SDS011;24727;51.974;20.868;2023-08-12T04:09:21;7.13;;;3.90;;
38937;SDS011;24727;51.974;20.868;2023-08-12T04:11:47;4.90;;;3.70;;
38937;SDS011;24727;51.974;20.868;2023-08-12T04:14:19;5.88;;;3.70;;
38937;SDS011;24727;51.974;20.868;2023-08-12T04:16:45;5.38;;;3.97;;
38937;SDS011;24727;51.974;20.868;2023-08-12T04:19:11;6.43;;;3.90;;
38937;SDS011;24727;51.974;20.868;2023-08-12T04:21:44;7.97;;;3.78;;
38937;SDS011;24727;51.974;20.868;2023-08-12T04:24:11;6.65;;;3.95;;
38937;SDS011;24727;51.974;20.868;2023-08-12T04:26:38;8.50;;;3.72;;
38937;SDS011;24727;51.974;20.868;2023-08-12T04:29:06;5.18;;;3.70;;
38937;SDS011;24727;51.974;20.868;2023-08-12T04:31:33;5.78;;;3.45;;
38937;SDS011;24727;51.974;20.868;2023-08-12T04:33:59;6.25;;;3.58;;
38937;SDS011;24727;51.974;20.868;2023-08-12T04:36:26;6.20;;;3.70;;
38937;SDS011;24727;51.974;20.868;2023-08-12T04:38:52;8.85;;;3.58;;
38937;SDS011;24727;51.974;20.868;2023-08-12T04:41:19;6.00;;;3.47;;
38937;SDS011;24727;51.974;20.868;2023-08-12T04:43:45;4.60;;;3.38;;
38937;SDS011;24727;51.974;20.868;2023-08-12T04:46:11;4.97;;;3.60;;
38937;SDS011;24727;51.974;20.868;2023-08-12T04:48:37;9.13;;;3.75;;
38937;SDS011;24727;51.974;20.868;2023-08-12T04:51:04;5.53;;;3.17;;
38937;SDS011;24727;51.974;20.868;2023-08-12T04:53:32;5.35;;;3.15;;
38937;SDS011;24727;51.974;20.868;2023-08-12T04:55:58;7.40;;;3.33;;
38937;SDS011;24727;51.974;20.868;2023-08-12T04:58:24;5.00;;;3.15;;
38937;SDS011;24727;51.974;20.868;2023-08-12T05:00:52;5.00;;;3.33;;
38937;SDS011;24727;51.974;20.868;2023-08-12T05:03:18;4.07;;;3.03;;
38937;SDS011;24727;51.974;20.868;2023-08-12T05:05:48;4.75;;;3.08;;
38937;SDS011;24727;51.974;20.868;2023-08-12T05:08:18;6.38;;;3.30;;
38937;SDS011;24727;51.974;20.868;2023-08-12T05:10:46;7.45;;;3.42;;
38937;SDS011;24727;51.974;20.868;2023-08-12T05:13:12;4.57;;;3.08;;
38937;SDS011;24727;51.974;20.868;2023-08-12T05:15:41;6.15;;;3.20;;
38937;SDS011;24727;51.974;20.868;2023-08-12T05:18:11;6.57;;;3.13;;
38937;SDS011;24727;51.974;20.868;2023-08-12T05:20:37;4.88;;;3.08;;
38937;SDS011;24727;51.974;20.868;2023-08-12T05:23:04;7.60;;;3.17;;
38937;SDS011;24727;51.974;20.868;2023-08-12T05:25:30;5.00;;;3.40;;
38937;SDS011;24727;51.974;20.868;2023-08-12T05:27:56;4.78;;;3.25;;
38937;SDS011;24727;51.974;20.868;2023-08-12T05:30:22;4.93;;;3.38;;
38937;SDS011;24727;51.974;20.868;2023-08-12T05:32:54;7.53;;;3.28;;
38937;SDS011;24727;51.974;20.868;2023-08-12T05:35:20;13.63;;;4.03;;
38937;SDS011;24727;51.974;20.868;2023-08-12T05:37:46;6.28;;;3.55;;
38937;SDS011;24727;51.974;20.868;2023-08-12T05:40:12;6.60;;;3.60;;
38937;SDS011;24727;51.974;20.868;2023-08-12T05:45:15;6.30;;;3.90;;
38937;SDS011;24727;51.974;20.868;2023-08-12T05:47:41;7.43;;;3.78;;
38937;SDS011;24727;51.974;20.868;2023-08-12T05:50:07;6.40;;;3.60;;
38937;SDS011;24727;51.974;20.868;2023-08-12T05:52:35;6.60;;;3.63;;
38937;SDS011;24727;51.974;20.868;2023-08-12T05:55:01;6.40;;;3.65;;
38937;SDS011;24727;51.974;20.868;2023-08-12T05:57:27;9.80;;;4.28;;
38937;SDS011;24727;51.974;20.868;2023-08-12T05:59:54;5.75;;;3.42;;
38937;SDS011;24727;51.974;20.868;2023-08-12T06:02:20;6.70;;;3.38;;
38937;SDS011;24727;51.974;20.868;2023-08-12T06:04:46;5.10;;;2.83;;
38937;SDS011;24727;51.974;20.868;2023-08-12T06:07:12;8.00;;;3.60;;
38937;SDS011;24727;51.974;20.868;2023-08-12T06:09:38;4.75;;;3.05;;
38937;SDS011;24727;51.974;20.868;2023-08-12T06:12:04;6.63;;;3.47;;
38937;SDS011;24727;51.974;20.868;2023-08-12T06:14:31;5.80;;;3.42;;
38937;SDS011;24727;51.974;20.868;2023-08-12T06:16:57;5.38;;;2.78;;
38937;SDS011;24727;51.974;20.868;2023-08-12T06:19:22;4.43;;;3.40;;
38937;SDS011;24727;51.974;20.868;2023-08-12T06:21:49;6.03;;;3.13;;
38937;SDS011;24727;51.974;20.868;2023-08-12T06:24:16;4.20;;;2.78;;
38937;SDS011;24727;51.974;20.868;2023-08-12T06:26:43;4.43;;;3.20;;
38937;SDS011;24727;51.974;20.868;2023-08-12T06:29:09;8.45;;;3.80;;
38937;SDS011;24727;51.974;20.868;2023-08-12T06:31:35;6.60;;;3.17;;
38937;SDS011;24727;51.974;20.868;2023-08-12T06:34:00;7.32;;;2.70;;
38937;SDS011;24727;51.974;20.868;2023-08-12T06:36:27;5.30;;;2.85;;
38937;SDS011;24727;51.974;20.868;2023-08-12T06:38:53;2.88;;;2.40;;
38937;SDS011;24727;51.974;20.868;2023-08-12T06:41:19;4.10;;;2.78;;
38937;SDS011;24727;51.974;20.868;2023-08-12T06:43:46;4.85;;;2.47;;
38937;SDS011;24727;51.974;20.868;2023-08-12T06:46:13;5.35;;;2.90;;
38937;SDS011;24727;51.974;20.868;2023-08-12T06:48:39;3.85;;;2.72;;
38937;SDS011;24727;51.974;20.868;2023-08-12T06:51:04;4.70;;;2.38;;
38937;SDS011;24727;51.974;20.868;2023-08-12T06:53:36;3.78;;;2.08;;
38937;SDS011;24727;51.974;20.868;2023-08-12T06:56:03;4.22;;;2.80;;
38937;SDS011;24727;51.974;20.868;2023-08-12T06:58:29;4.88;;;3.20;;
38937;SDS011;24727;51.974;20.868;2023-08-12T07:00:55;2.75;;;2.08;;
38937;SDS011;24727;51.974;20.868;2023-08-12T07:03:22;7.70;;;3.25;;
38937;SDS011;24727;51.974;20.868;2023-08-12T07:05:48;5.65;;;2.63;;
38937;SDS011;24727;51.974;20.868;2023-08-12T07:08:16;6.18;;;2.60;;
38937;SDS011;24727;51.974;20.868;2023-08-12T07:10:43;4.50;;;2.45;;
38937;SDS011;24727;51.974;20.868;2023-08-12T07:13:10;8.38;;;2.92;;
38937;SDS011;24727;51.974;20.868;2023-08-12T07:15:36;4.50;;;2.42;;
38937;SDS011;24727;51.974;20.868;2023-08-12T07:18:04;4.43;;;2.60;;
38937;SDS011;24727;51.974;20.868;2023-08-12T07:20:30;5.47;;;2.00;;
38937;SDS011;24727;51.974;20.868;2023-08-12T07:22:56;5.00;;;2.55;;
38937;SDS011;24727;51.974;20.868;2023-08-12T07:25:22;4.88;;;2.20;;
38937;SDS011;24727;51.974;20.868;2023-08-12T07:27:49;4.20;;;2.63;;
38937;SDS011;24727;51.974;20.868;2023-08-12T07:30:15;3.35;;;1.75;;
38937;SDS011;24727;51.974;20.868;2023-08-12T07:32:42;7.97;;;2.25;;
38937;SDS011;24727;51.974;20.868;2023-08-12T07:35:07;2.78;;;1.80;;
38937;SDS011;24727;51.974;20.868;2023-08-12T07:37:34;2.65;;;1.95;;
38937;SDS011;24727;51.974;20.868;2023-08-12T07:40:01;2.90;;;2.10;;
38937;SDS011;24727;51.974;20.868;2023-08-12T07:42:30;3.97;;;1.50;;
38937;SDS011;24727;51.974;20.868;2023-08-12T07:44:57;2.53;;;1.73;;
38937;SDS011;24727;51.974;20.868;2023-08-12T07:47:23;2.80;;;1.83;;
38937;SDS011;24727;51.974;20.868;2023-08-12T07:49:49;4.40;;;1.80;;
38937;SDS011;24727;51.974;20.868;2023-08-12T07:52:16;3.08;;;1.60;;
38937;SDS011;24727;51.974;20.868;2023-08-12T07:54:43;4.40;;;1.65;;
38937;SDS011;24727;51.974;20.868;2023-08-12T07:57:09;2.60;;;1.63;;
38937;SDS011;24727;51.974;20.868;2023-08-12T07:59:35;3.97;;;2.00;;
38937;SDS011;24727;51.974;20.868;2023-08-12T08:02:01;3.45;;;1.50;;
38937;SDS011;24727;51.974;20.868;2023-08-12T08:04:27;2.97;;;1.30;;
38937;SDS011;24727;51.974;20.868;2023-08-12T08:06:54;5.15;;;1.70;;
38937;SDS011;24727;51.974;20.868;2023-08-12T08:09:21;2.95;;;1.55;;
38937;SDS011;24727;51.974;20.868;2023-08-12T08:11:47;4.47;;;1.35;;
38937;SDS011;24727;51.974;20.868;2023-08-12T08:14:15;4.20;;;1.30;;
38937;SDS011;24727;51.974;20.868;2023-08-12T08:19:10;2.78;;;1.42;;
38937;SDS011;24727;51.974;20.868;2023-08-12T08:21:36;4.78;;;1.50;;
38937;SDS011;24727;51.974;20.868;2023-08-12T08:24:03;1.60;;;1.30;;
38937;SDS011;24727;51.974;20.868;2023-08-12T08:26:30;4.18;;;1.35;;
38937;SDS011;24727;51.974;20.868;2023-08-12T08:28:56;4.03;;;1.40;;
38937;SDS011;24727;51.974;20.868;2023-08-12T08:31:21;3.30;;;1.23;;
38937;SDS011;24727;51.974;20.868;2023-08-12T08:33:47;2.58;;;1.02;;
38937;SDS011;24727;51.974;20.868;2023-08-12T08:36:13;3.50;;;1.20;;
38937;SDS011;24727;51.974;20.868;2023-08-12T08:38:39;2.45;;;1.42;;
38937;SDS011;24727;51.974;20.868;2023-08-12T08:41:05;1.67;;;1.02;;
38937;SDS011;24727;51.974;20.868;2023-08-12T08:43:36;1.95;;;1.17;;
38937;SDS011;24727;51.974;20.868;2023-08-12T08:46:04;2.15;;;1.23;;
38937;SDS011;24727;51.974;20.868;2023-08-12T08:48:32;5.55;;;1.25;;
38937;SDS011;24727;51.974;20.868;2023-08-12T08:50:59;3.95;;;1.48;;
38937;SDS011;24727;51.974;20.868;2023-08-12T08:53:26;4.35;;;1.30;;
38937;SDS011;24727;51.974;20.868;2023-08-12T08:55:53;4.38;;;1.45;;
38937;SDS011;24727;51.974;20.868;2023-08-12T08:58:22;2.50;;;1.27;;
38937;SDS011;24727;51.974;20.868;2023-08-12T09:00:47;3.88;;;1.52;;
38937;SDS011;24727;51.974;20.868;2023-08-12T09:03:15;1.85;;;0.98;;
38937;SDS011;24727;51.974;20.868;2023-08-12T09:05:44;3.17;;;1.25;;
38937;SDS011;24727;51.974;20.868;2023-08-12T09:08:10;4.82;;;1.80;;
38937;SDS011;24727;51.974;20.868;2023-08-12T09:10:38;6.20;;;1.27;;
38937;SDS011;24727;51.974;20.868;2023-08-12T09:13:07;3.55;;;1.20;;
38937;SDS011;24727;51.974;20.868;2023-08-12T09:15:34;4.50;;;1.40;;
38937;SDS011;24727;51.974;20.868;2023-08-12T09:18:00;4.78;;;1.60;;
38937;SDS011;24727;51.974;20.868;2023-08-12T09:20:26;2.38;;;1.05;;
38937;SDS011;24727;51.974;20.868;2023-08-12T09:22:56;3.22;;;1.20;;
38937;SDS011;24727;51.974;20.868;2023-08-12T09:25:24;4.35;;;1.40;;
38937;SDS011;24727;51.974;20.868;2023-08-12T09:27:53;2.13;;;1.27;;
38937;SDS011;24727;51.974;20.868;2023-08-12T09:30:20;4.45;;;1.30;;
38937;SDS011;24727;51.974;20.868;2023-08-12T09:33:08;2.00;;;1.05;;
38937;SDS011;24727;51.974;20.868;2023-08-12T09:35:37;1.77;;;1.25;;
38937;SDS011;24727;51.974;20.868;2023-08-12T09:38:07;2.00;;;1.05;;
38937;SDS011;24727;51.974;20.868;2023-08-12T09:40:37;2.05;;;1.25;;
38937;SDS011;24727;51.974;20.868;2023-08-12T09:43:03;2.90;;;1.05;;
38937;SDS011;24727;51.974;20.868;2023-08-12T09:45:33;3.65;;;1.42;;
38937;SDS011;24727;51.974;20.868;2023-08-12T09:48:00;3.30;;;1.23;;
38937;SDS011;24727;51.974;20.868;2023-08-12T09:50:26;3.40;;;1.20;;
38937;SDS011;24727;51.974;20.868;2023-08-12T09:52:54;1.48;;;0.88;;
38937;SDS011;24727;51.974;20.868;2023-08-12T09:55:22;2.20;;;1.23;;
38937;SDS011;24727;51.974;20.868;2023-08-12T09:57:53;1.70;;;1.13;;
38937;SDS011;24727;51.974;20.868;2023-08-12T10:00:20;4.32;;;1.33;;
38937;SDS011;24727;51.974;20.868;2023-08-12T10:02:49;3.70;;;1.20;;
38937;SDS011;24727;51.974;20.868;2023-08-12T10:05:38;1.80;;;0.90;;
38937;SDS011;24727;51.974;20.868;2023-08-12T10:08:04;5.32;;;1.63;;
38937;SDS011;24727;51.974;20.868;2023-08-12T10:10:32;4.22;;;1.30;;
38937;SDS011;24727;51.974;20.868;2023-08-12T10:13:01;1.83;;;1.23;;
38937;SDS011;24727;51.974;20.868;2023-08-12T10:15:28;4.07;;;1.20;;
38937;SDS011;24727;51.974;20.868;2023-08-12T10:17:56;4.47;;;1.33;;
38937;SDS011;24727;51.974;20.868;2023-08-12T10:20:24;2.65;;;1.48;;
38937;SDS011;24727;51.974;20.868;2023-08-12T10:22:51;5.57;;;1.80;;
38937;SDS011;24727;51.974;20.868;2023-08-12T10:25:19;2.55;;;1.40;;
38937;SDS011;24727;51.974;20.868;2023-08-12T10:27:49;4.22;;;1.30;;
38937;SDS011;24727;51.974;20.868;2023-08-12T10:30:15;2.45;;;1.40;;
38937;SDS011;24727;51.974;20.868;2023-08-12T10:32:42;5.78;;;2.20;;
38937;SDS011;24727;51.974;20.868;2023-08-12T10:35:10;3.65;;;1.30;;
38937;SDS011;24727;51.974;20.868;2023-08-12T10:37:36;5.82;;;1.40;;
38937;SDS011;24727;51.974;20.868;2023-08-12T10:40:06;2.15;;;1.25;;
38937;SDS011;24727;51.974;20.868;2023-08-12T10:42:47;2.10;;;1.27;;
38937;SDS011;24727;51.974;20.868;2023-08-12T10:45:15;2.42;;;1.40;;
38937;SDS011;24727;51.974;20.868;2023-08-12T10:47:47;2.47;;;1.40;;
38937;SDS011;24727;51.974;20.868;2023-08-12T10:50:33;1.48;;;1.15;;
38937;SDS011;24727;51.974;20.868;2023-08-12T10:53:01;3.22;;;1.30;;
38937;SDS011;24727;51.974;20.868;2023-08-12T10:55:54;2.28;;;1.10;;
38937;SDS011;24727;51.974;20.868;2023-08-12T11:01:20;4.50;;;1.40;;
38937;SDS011;24727;51.974;20.868;2023-08-12T11:03:48;1.20;;;1.00;;
38937;SDS011;24727;51.974;20.868;2023-08-12T11:06:18;2.58;;;1.17;;
38937;SDS011;24727;51.974;20.868;2023-08-12T11:08:51;6.38;;;1.10;;
38937;SDS011;24727;51.974;20.868;2023-08-12T11:11:19;3.75;;;1.00;;
38937;SDS011;24727;51.974;20.868;2023-08-12T11:13:53;8.23;;;1.00;;
38937;SDS011;24727;51.974;20.868;2023-08-12T11:16:30;1.98;;;1.20;;
38937;SDS011;24727;51.974;20.868;2023-08-12T11:19:03;3.40;;;1.15;;
38937;SDS011;24727;51.974;20.868;2023-08-12T11:21:29;2.00;;;1.10;;
38937;SDS011;24727;51.974;20.868;2023-08-12T11:23:55;3.28;;;1.30;;
38937;SDS011;24727;51.974;20.868;2023-08-12T11:26:23;5.35;;;1.40;;
38937;SDS011;24727;51.974;20.868;2023-08-12T11:28:49;2.70;;;1.42;;
38937;SDS011;24727;51.974;20.868;2023-08-12T11:31:16;4.20;;;0.95;;
38937;SDS011;24727;51.974;20.868;2023-08-12T11:33:44;4.07;;;1.10;;
38937;SDS011;24727;51.974;20.868;2023-08-12T11:36:10;1.98;;;1.45;;
38937;SDS011;24727;51.974;20.868;2023-08-12T11:38:37;3.08;;;1.20;;
38937;SDS011;24727;51.974;20.868;2023-08-12T11:41:03;1.67;;;1.00;;
38937;SDS011;24727;51.974;20.868;2023-08-12T11:43:31;1.95;;;1.17;;
38937;SDS011;24727;51.974;20.868;2023-08-12T11:45:58;4.53;;;1.10;;
38937;SDS011;24727;51.974;20.868;2023-08-12T11:48:27;3.22;;;1.42;;
38937;SDS011;24727;51.974;20.868;2023-08-12T11:50:53;2.08;;;1.20;;
38937;SDS011;24727;51.974;20.868;2023-08-12T11:53:20;4.15;;;1.30;;
38937;SDS011;24727;51.974;20.868;2023-08-12T11:55:46;1.40;;;0.93;;
38937;SDS011;24727;51.974;20.868;2023-08-12T11:58:14;2.13;;;1.08;;
38937;SDS011;24727;51.974;20.868;2023-08-12T12:00:50;4.15;;;1.33;;
38937;SDS011;24727;51.974;20.868;2023-08-12T12:03:17;2.20;;;1.33;;
38937;SDS011;24727;51.974;20.868;2023-08-12T12:05:45;4.38;;;1.50;;
38937;SDS011;24727;51.974;20.868;2023-08-12T12:08:11;2.53;;;1.20;;
38937;SDS011;24727;51.974;20.868;2023-08-12T12:10:39;1.55;;;1.13;;
38937;SDS011;24727;51.974;20.868;2023-08-12T12:13:07;3.50;;;1.38;;
38937;SDS011;24727;51.974;20.868;2023-08-12T12:15:42;5.43;;;1.25;;
38937;SDS011;24727;51.974;20.868;2023-08-12T12:18:12;1.58;;;1.00;;
38937;SDS011;24727;51.974;20.868;2023-08-12T12:20:58;7.43;;;1.70;;
38937;SDS011;24727;51.974;20.868;2023-08-12T12:23:28;2.63;;;1.10;;
38937;SDS011;24727;51.974;20.868;2023-08-12T12:25:59;4.33;;;1.27;;
38937;SDS011;24727;51.974;20.868;2023-08-12T12:28:25;3.15;;;1.30;;
38937;SDS011;24727;51.974;20.868;2023-08-12T12:30:55;2.25;;;1.10;;
38937;SDS011;24727;51.974;20.868;2023-08-12T12:33:23;3.50;;;1.42;;
38937;SDS011;24727;51.974;20.868;2023-08-12T12:35:49;1.77;;;1.20;;
38937;SDS011;24727;51.974;20.868;2023-08-12T12:38:16;2.80;;;1.17;;
38937;SDS011;24727;51.974;20.868;2023-08-12T12:40:42;4.00;;;1.33;;
38937;SDS011;24727;51.974;20.868;2023-08-12T12:43:08;5.03;;;1.30;;
38937;SDS011;24727;51.974;20.868;2023-08-12T12:45:34;1.75;;;1.40;;
38937;SDS011;24727;51.974;20.868;2023-08-12T12:48:00;4.70;;;1.60;;
38937;SDS011;24727;51.974;20.868;2023-08-12T12:50:26;1.55;;;1.30;;
38937;SDS011;24727;51.974;20.868;2023-08-12T12:52:52;2.58;;;1.50;;
38937;SDS011;24727;51.974;20.868;2023-08-12T12:55:18;2.30;;;1.38;;
38937;SDS011;24727;51.974;20.868;2023-08-12T12:57:45;3.35;;;1.20;;
38937;SDS011;24727;51.974;20.868;2023-08-12T13:00:11;3.08;;;1.38;;
38937;SDS011;24727;51.974;20.868;2023-08-12T13:02:37;2.38;;;1.23;;
38937;SDS011;24727;51.974;20.868;2023-08-12T13:05:04;4.57;;;1.70;;
38937;SDS011;24727;51.974;20.868;2023-08-12T13:07:30;1.40;;;1.00;;
38937;SDS011;24727;51.974;20.868;2023-08-12T13:09:56;3.95;;;1.40;;
38937;SDS011;24727;51.974;20.868;2023-08-12T13:12:22;5.00;;;1.42;;
38937;SDS011;24727;51.974;20.868;2023-08-12T13:14:49;3.47;;;1.23;;
38937;SDS011;24727;51.974;20.868;2023-08-12T13:17:15;3.85;;;1.40;;
38937;SDS011;24727;51.974;20.868;2023-08-12T13:19:41;3.55;;;1.40;;
38937;SDS011;24727;51.974;20.868;2023-08-12T13:22:08;1.52;;;1.27;;
38937;SDS011;24727;51.974;20.868;2023-08-12T13:24:40;2.65;;;1.30;;
38937;SDS011;24727;51.974;20.868;2023-08-12T13:27:06;6.07;;;1.17;;
38937;SDS011;24727;51.974;20.868;2023-08-12T13:29:34;2.20;;;1.10;;
38937;SDS011;24727;51.974;20.868;2023-08-12T13:32:00;4.63;;;1.30;;
38937;SDS011;24727;51.974;20.868;2023-08-12T13:34:29;1.92;;;1.38;;
38937;SDS011;24727;51.974;20.868;2023-08-12T13:36:56;3.83;;;1.00;;
38937;SDS011;24727;51.974;20.868;2023-08-12T13:39:22;3.78;;;1.30;;
38937;SDS011;24727;51.974;20.868;2023-08-12T13:41:49;1.85;;;1.05;;
38937;SDS011;24727;51.974;20.868;2023-08-12T13:44:14;1.95;;;1.42;;
38937;SDS011;24727;51.974;20.868;2023-08-12T13:46:40;2.15;;;1.23;;
38937;SDS011;24727;51.974;20.868;2023-08-12T13:49:06;6.68;;;1.42;;
38937;SDS011;24727;51.974;20.868;2023-08-12T13:51:33;2.67;;;1.50;;
38937;SDS011;24727;51.974;20.868;2023-08-12T13:53:59;2.78;;;1.60;;
38937;SDS011;24727;51.974;20.868;2023-08-12T13:56:26;7.30;;;1.08;;
38937;SDS011;24727;51.974;20.868;2023-08-12T13:58:52;3.33;;;1.63;;
38937;SDS011;24727;51.974;20.868;2023-08-12T14:01:18;7.10;;;1.33;;
38937;SDS011;24727;51.974;20.868;2023-08-12T14:03:45;4.78;;;1.52;;
38937;SDS011;24727;51.974;20.868;2023-08-12T14:06:11;2.58;;;1.35;;
38937;SDS011;24727;51.974;20.868;2023-08-12T14:08:37;3.88;;;1.45;;
38937;SDS011;24727;51.974;20.868;2023-08-12T14:11:03;2.17;;;1.27;;
38937;SDS011;24727;51.974;20.868;2023-08-12T14:13:29;3.83;;;1.40;;
38937;SDS011;24727;51.974;20.868;2023-08-12T14:15:55;2.63;;;1.10;;
38937;SDS011;24727;51.974;20.868;2023-08-12T14:18:21;2.67;;;1.30;;
38937;SDS011;24727;51.974;20.868;2023-08-12T14:20:47;2.92;;;1.42;;
38937;SDS011;24727;51.974;20.868;2023-08-12T14:23:13;3.38;;;1.25;;
38937;SDS011;24727;51.974;20.868;2023-08-12T14:25:40;4.05;;;1.40;;
38937;SDS011;24727;51.974;20.868;2023-08-12T14:28:06;6.18;;;1.40;;
38937;SDS011;24727;51.974;20.868;2023-08-12T14:30:33;1.70;;;1.25;;
38937;SDS011;24727;51.974;20.868;2023-08-12T14:33:05;2.47;;;1.30;;
38937;SDS011;24727;51.974;20.868;2023-08-12T14:35:33;2.13;;;1.20;;
38937;SDS011;24727;51.974;20.868;2023-08-12T14:38:00;1.88;;;1.20;;
38937;SDS011;24727;51.974;20.868;2023-08-12T14:40:27;3.33;;;1.20;;
38937;SDS011;24727;51.974;20.868;2023-08-12T14:42:53;3.10;;;1.45;;
38937;SDS011;24727;51.974;20.868;2023-08-12T14:45:19;6.60;;;1.40;;
38937;SDS011;24727;51.974;20.868;2023-08-12T14:47:47;2.15;;;1.42;;
38937;SDS011;24727;51.974;20.868;2023-08-12T14:50:13;1.85;;;1.10;;
38937;SDS011;24727;51.974;20.868;2023-08-12T14:52:40;1.63;;;1.35;;